sensor_id;sensor_type;location;lat;lon;timestamp;temperature;humidity
61392;DHT22;47261;52.892;5.738;2022-09-24T00:03:41;15.60;94.70
61392;DHT22;47261;52.892;5.738;2022-09-24T00:06:10;15.70;94.70
61392;DHT22;47261;52.892;5.738;2022-09-24T00:08:38;15.60;94.70
61392;DHT22;47261;52.892;5.738;2022-09-24T00:11:05;15.60;94.70
61392;DHT22;47261;52.892;5.738;2022-09-24T00:13:33;15.60;94.70
61392;DHT22;47261;52.892;5.738;2022-09-24T00:16:05;15.60;94.70
61392;DHT22;47261;52.892;5.738;2022-09-24T00:18:32;15.60;94.70
61392;DHT22;47261;52.892;5.738;2022-09-24T00:20:57;15.60;94.70
61392;DHT22;47261;52.892;5.738;2022-09-24T00:23:23;15.60;94.70
61392;DHT22;47261;52.892;5.738;2022-09-24T00:25:49;15.60;94.70
61392;DHT22;47261;52.892;5.738;2022-09-24T00:28:33;15.60;94.70
61392;DHT22;47261;52.892;5.738;2022-09-24T00:31:04;15.60;94.60
61392;DHT22;47261;52.892;5.738;2022-09-24T00:33:32;15.60;94.60
61392;DHT22;47261;52.892;5.738;2022-09-24T00:36:03;15.60;94.60
61392;DHT22;47261;52.892;5.738;2022-09-24T00:38:31;15.60;94.60
61392;DHT22;47261;52.892;5.738;2022-09-24T00:40:57;15.60;94.60
61392;DHT22;47261;52.892;5.738;2022-09-24T00:43:32;15.60;94.60
61392;DHT22;47261;52.892;5.738;2022-09-24T00:49:01;15.60;94.50
61392;DHT22;47261;52.892;5.738;2022-09-24T00:51:29;15.60;94.50
61392;DHT22;47261;52.892;5.738;2022-09-24T00:54:00;15.50;94.40
61392;DHT22;47261;52.892;5.738;2022-09-24T00:56:27;15.50;94.40
61392;DHT22;47261;52.892;5.738;2022-09-24T00:58:56;15.50;94.40
61392;DHT22;47261;52.892;5.738;2022-09-24T01:01:23;15.50;94.40
61392;DHT22;47261;52.892;5.738;2022-09-24T01:03:52;15.50;94.40
61392;DHT22;47261;52.892;5.738;2022-09-24T01:06:18;15.50;94.40
61392;DHT22;47261;52.892;5.738;2022-09-24T01:08:44;15.50;94.40
61392;DHT22;47261;52.892;5.738;2022-09-24T01:19:47;15.50;94.50
61392;DHT22;47261;52.892;5.738;2022-09-24T01:22:40;15.50;94.50
61392;DHT22;47261;52.892;5.738;2022-09-24T01:30:57;15.40;94.50
61392;DHT22;47261;52.892;5.738;2022-09-24T01:33:25;15.50;94.50
61392;DHT22;47261;52.892;5.738;2022-09-24T01:35:58;15.40;94.50
61392;DHT22;47261;52.892;5.738;2022-09-24T01:38:30;15.40;94.50
61392;DHT22;47261;52.892;5.738;2022-09-24T01:41:00;15.40;94.80
61392;DHT22;47261;52.892;5.738;2022-09-24T01:43:29;15.40;94.50
61392;DHT22;47261;52.892;5.738;2022-09-24T01:45:56;15.40;94.50
61392;DHT22;47261;52.892;5.738;2022-09-24T01:48:27;15.40;94.50
61392;DHT22;47261;52.892;5.738;2022-09-24T01:51:13;15.40;94.50
61392;DHT22;47261;52.892;5.738;2022-09-24T01:53:53;15.40;94.50
61392;DHT22;47261;52.892;5.738;2022-09-24T01:56:41;15.40;94.50
61392;DHT22;47261;52.892;5.738;2022-09-24T02:02:04;15.40;94.40
61392;DHT22;47261;52.892;5.738;2022-09-24T02:04:37;15.40;94.50
61392;DHT22;47261;52.892;5.738;2022-09-24T02:07:13;15.40;94.40
61392;DHT22;47261;52.892;5.738;2022-09-24T02:09:42;15.40;94.40
61392;DHT22;47261;52.892;5.738;2022-09-24T02:12:28;15.40;94.40
61392;DHT22;47261;52.892;5.738;2022-09-24T02:15:07;15.40;94.40
61392;DHT22;47261;52.892;5.738;2022-09-24T02:17:37;15.40;94.40
61392;DHT22;47261;52.892;5.738;2022-09-24T02:20:07;15.40;94.40
61392;DHT22;47261;52.892;5.738;2022-09-24T02:22:34;15.40;94.40
61392;DHT22;47261;52.892;5.738;2022-09-24T02:25:01;15.30;94.40
61392;DHT22;47261;52.892;5.738;2022-09-24T02:27:28;15.40;94.40
61392;DHT22;47261;52.892;5.738;2022-09-24T02:29:57;15.40;94.40
61392;DHT22;47261;52.892;5.738;2022-09-24T02:32:31;15.40;94.40
61392;DHT22;47261;52.892;5.738;2022-09-24T02:35:02;15.30;94.40
61392;DHT22;47261;52.892;5.738;2022-09-24T02:37:34;15.40;94.40
61392;DHT22;47261;52.892;5.738;2022-09-24T02:40:00;15.40;94.40
61392;DHT22;47261;52.892;5.738;2022-09-24T02:42:27;15.40;94.40
61392;DHT22;47261;52.892;5.738;2022-09-24T02:44:53;15.40;94.40
61392;DHT22;47261;52.892;5.738;2022-09-24T02:47:21;15.40;94.40
61392;DHT22;47261;52.892;5.738;2022-09-24T02:49:47;15.40;94.50
61392;DHT22;47261;52.892;5.738;2022-09-24T02:52:13;15.40;94.40
61392;DHT22;47261;52.892;5.738;2022-09-24T02:54:38;15.40;94.40
61392;DHT22;47261;52.892;5.738;2022-09-24T02:57:05;15.40;94.70
61392;DHT22;47261;52.892;5.738;2022-09-24T02:59:30;15.40;94.50
61392;DHT22;47261;52.892;5.738;2022-09-24T03:01:56;15.40;94.50
61392;DHT22;47261;52.892;5.738;2022-09-24T03:04:21;15.50;94.50
61392;DHT22;47261;52.892;5.738;2022-09-24T03:06:47;15.50;94.50
61392;DHT22;47261;52.892;5.738;2022-09-24T03:09:13;15.50;94.50
61392;DHT22;47261;52.892;5.738;2022-09-24T03:11:39;15.40;94.50
61392;DHT22;47261;52.892;5.738;2022-09-24T03:14:05;15.50;94.50
61392;DHT22;47261;52.892;5.738;2022-09-24T03:16:30;15.40;94.50
61392;DHT22;47261;52.892;5.738;2022-09-24T03:18:56;15.50;94.50
61392;DHT22;47261;52.892;5.738;2022-09-24T03:21:22;15.40;94.50
61392;DHT22;47261;52.892;5.738;2022-09-24T03:23:48;15.40;94.50
61392;DHT22;47261;52.892;5.738;2022-09-24T03:26:14;15.40;94.60
61392;DHT22;47261;52.892;5.738;2022-09-24T03:28:40;15.40;94.60
61392;DHT22;47261;52.892;5.738;2022-09-24T03:31:06;15.40;94.60
61392;DHT22;47261;52.892;5.738;2022-09-24T03:33:40;15.40;94.60
61392;DHT22;47261;52.892;5.738;2022-09-24T03:36:19;15.40;94.70
61392;DHT22;47261;52.892;5.738;2022-09-24T03:38:46;15.40;94.80
61392;DHT22;47261;52.892;5.738;2022-09-24T03:41:13;15.30;94.70
61392;DHT22;47261;52.892;5.738;2022-09-24T03:43:39;15.30;94.80
61392;DHT22;47261;52.892;5.738;2022-09-24T03:46:05;15.30;94.80
61392;DHT22;47261;52.892;5.738;2022-09-24T03:48:33;15.30;94.90
61392;DHT22;47261;52.892;5.738;2022-09-24T03:51:08;15.30;95.00
61392;DHT22;47261;52.892;5.738;2022-09-24T03:53:34;15.30;95.00
61392;DHT22;47261;52.892;5.738;2022-09-24T03:56:00;15.30;95.10
61392;DHT22;47261;52.892;5.738;2022-09-24T03:58:27;15.20;95.10
61392;DHT22;47261;52.892;5.738;2022-09-24T04:00:54;15.20;95.20
61392;DHT22;47261;52.892;5.738;2022-09-24T04:03:20;15.20;95.30
61392;DHT22;47261;52.892;5.738;2022-09-24T04:05:47;15.10;95.40
61392;DHT22;47261;52.892;5.738;2022-09-24T04:08:13;15.10;95.50
61392;DHT22;47261;52.892;5.738;2022-09-24T04:10:39;15.10;95.60
61392;DHT22;47261;52.892;5.738;2022-09-24T04:13:04;15.00;95.60
61392;DHT22;47261;52.892;5.738;2022-09-24T04:15:30;15.00;95.70
61392;DHT22;47261;52.892;5.738;2022-09-24T04:17:58;15.00;95.70
61392;DHT22;47261;52.892;5.738;2022-09-24T04:20:27;15.00;95.70
61392;DHT22;47261;52.892;5.738;2022-09-24T04:22:55;14.90;95.60
61392;DHT22;47261;52.892;5.738;2022-09-24T04:25:22;14.90;95.60
61392;DHT22;47261;52.892;5.738;2022-09-24T04:28:05;14.90;95.70
61392;DHT22;47261;52.892;5.738;2022-09-24T04:30:32;14.90;95.70
61392;DHT22;47261;52.892;5.738;2022-09-24T04:32:58;14.90;95.70
61392;DHT22;47261;52.892;5.738;2022-09-24T04:35:26;14.90;95.70
61392;DHT22;47261;52.892;5.738;2022-09-24T04:37:52;14.90;95.70
61392;DHT22;47261;52.892;5.738;2022-09-24T04:40:18;14.90;95.70
61392;DHT22;47261;52.892;5.738;2022-09-24T04:42:44;14.90;95.70
61392;DHT22;47261;52.892;5.738;2022-09-24T04:45:11;14.90;95.70
61392;DHT22;47261;52.892;5.738;2022-09-24T04:47:37;14.90;95.60
61392;DHT22;47261;52.892;5.738;2022-09-24T04:50:06;14.90;95.60
61392;DHT22;47261;52.892;5.738;2022-09-24T04:52:33;14.90;95.60
61392;DHT22;47261;52.892;5.738;2022-09-24T04:54:59;14.90;95.60
61392;DHT22;47261;52.892;5.738;2022-09-24T04:57:26;15.00;95.60
61392;DHT22;47261;52.892;5.738;2022-09-24T04:59:53;15.00;95.60
61392;DHT22;47261;52.892;5.738;2022-09-24T05:02:19;14.90;95.50
61392;DHT22;47261;52.892;5.738;2022-09-24T05:04:44;15.00;95.60
61392;DHT22;47261;52.892;5.738;2022-09-24T05:07:10;15.00;95.60
61392;DHT22;47261;52.892;5.738;2022-09-24T05:09:36;15.00;95.50
61392;DHT22;47261;52.892;5.738;2022-09-24T05:12:02;15.00;95.50
61392;DHT22;47261;52.892;5.738;2022-09-24T05:14:28;15.00;95.60
61392;DHT22;47261;52.892;5.738;2022-09-24T05:16:55;15.00;95.50
61392;DHT22;47261;52.892;5.738;2022-09-24T05:19:20;15.00;95.50
61392;DHT22;47261;52.892;5.738;2022-09-24T05:21:46;15.00;95.50
61392;DHT22;47261;52.892;5.738;2022-09-24T05:24:12;15.00;95.50
61392;DHT22;47261;52.892;5.738;2022-09-24T05:26:38;15.00;95.50
61392;DHT22;47261;52.892;5.738;2022-09-24T05:29:22;15.00;95.50
61392;DHT22;47261;52.892;5.738;2022-09-24T05:31:48;14.90;95.50
61392;DHT22;47261;52.892;5.738;2022-09-24T05:34:14;15.00;95.50
61392;DHT22;47261;52.892;5.738;2022-09-24T05:36:40;14.90;95.50
61392;DHT22;47261;52.892;5.738;2022-09-24T05:39:08;14.90;95.50
61392;DHT22;47261;52.892;5.738;2022-09-24T05:41:34;14.90;95.50
61392;DHT22;47261;52.892;5.738;2022-09-24T05:44:00;15.00;95.50
61392;DHT22;47261;52.892;5.738;2022-09-24T05:46:26;15.00;95.50
61392;DHT22;47261;52.892;5.738;2022-09-24T05:48:52;15.00;95.50
61392;DHT22;47261;52.892;5.738;2022-09-24T05:51:17;15.00;95.40
61392;DHT22;47261;52.892;5.738;2022-09-24T05:53:43;14.90;95.40
61392;DHT22;47261;52.892;5.738;2022-09-24T05:56:09;14.90;95.40
61392;DHT22;47261;52.892;5.738;2022-09-24T05:58:35;14.90;95.40
61392;DHT22;47261;52.892;5.738;2022-09-24T06:01:01;14.90;95.30
61392;DHT22;47261;52.892;5.738;2022-09-24T06:03:27;14.90;95.60
61392;DHT22;47261;52.892;5.738;2022-09-24T06:05:54;14.90;95.30
61392;DHT22;47261;52.892;5.738;2022-09-24T06:08:30;14.90;95.30
61392;DHT22;47261;52.892;5.738;2022-09-24T06:11:02;14.90;95.30
61392;DHT22;47261;52.892;5.738;2022-09-24T06:13:30;14.90;95.30
61392;DHT22;47261;52.892;5.738;2022-09-24T06:16:05;14.90;95.30
61392;DHT22;47261;52.892;5.738;2022-09-24T06:18:36;14.90;95.30
61392;DHT22;47261;52.892;5.738;2022-09-24T06:21:07;14.90;95.30
61392;DHT22;47261;52.892;5.738;2022-09-24T06:23:33;14.90;95.20
61392;DHT22;47261;52.892;5.738;2022-09-24T06:25:59;14.90;95.20
61392;DHT22;47261;52.892;5.738;2022-09-24T06:28:25;14.90;95.20
61392;DHT22;47261;52.892;5.738;2022-09-24T06:30:51;15.00;95.20
61392;DHT22;47261;52.892;5.738;2022-09-24T06:33:17;15.00;95.10
61392;DHT22;47261;52.892;5.738;2022-09-24T06:35:44;15.00;95.10
61392;DHT22;47261;52.892;5.738;2022-09-24T06:38:15;15.00;95.10
61392;DHT22;47261;52.892;5.738;2022-09-24T06:40:42;15.00;95.10
61392;DHT22;47261;52.892;5.738;2022-09-24T06:43:10;15.00;95.10
61392;DHT22;47261;52.892;5.738;2022-09-24T06:45:38;15.00;95.10
61392;DHT22;47261;52.892;5.738;2022-09-24T06:48:04;15.10;95.10
61392;DHT22;47261;52.892;5.738;2022-09-24T06:50:32;15.10;95.10
61392;DHT22;47261;52.892;5.738;2022-09-24T06:52:58;15.10;95.00
61392;DHT22;47261;52.892;5.738;2022-09-24T06:55:25;15.10;95.00
61392;DHT22;47261;52.892;5.738;2022-09-24T07:00:29;15.10;94.90
61392;DHT22;47261;52.892;5.738;2022-09-24T07:02:54;15.20;94.90
61392;DHT22;47261;52.892;5.738;2022-09-24T07:05:20;15.20;94.90
61392;DHT22;47261;52.892;5.738;2022-09-24T07:07:46;15.20;94.90
61392;DHT22;47261;52.892;5.738;2022-09-24T07:10:11;15.20;94.90
61392;DHT22;47261;52.892;5.738;2022-09-24T07:12:40;15.20;94.80
61392;DHT22;47261;52.892;5.738;2022-09-24T07:15:07;15.30;94.80
61392;DHT22;47261;52.892;5.738;2022-09-24T07:17:33;15.30;94.70
61392;DHT22;47261;52.892;5.738;2022-09-24T07:19:59;15.30;94.70
61392;DHT22;47261;52.892;5.738;2022-09-24T07:22:25;15.30;94.70
61392;DHT22;47261;52.892;5.738;2022-09-24T07:24:51;15.30;94.60
61392;DHT22;47261;52.892;5.738;2022-09-24T07:27:17;15.40;94.60
61392;DHT22;47261;52.892;5.738;2022-09-24T07:29:46;15.40;94.60
61392;DHT22;47261;52.892;5.738;2022-09-24T07:32:11;15.40;94.50
61392;DHT22;47261;52.892;5.738;2022-09-24T07:34:39;15.50;94.50
61392;DHT22;47261;52.892;5.738;2022-09-24T07:37:05;15.50;94.40
61392;DHT22;47261;52.892;5.738;2022-09-24T07:39:32;15.50;94.60
61392;DHT22;47261;52.892;5.738;2022-09-24T07:41:58;15.50;94.60
61392;DHT22;47261;52.892;5.738;2022-09-24T07:44:26;15.60;94.30
61392;DHT22;47261;52.892;5.738;2022-09-24T07:46:52;15.60;94.30
61392;DHT22;47261;52.892;5.738;2022-09-24T07:49:17;15.70;94.20
61392;DHT22;47261;52.892;5.738;2022-09-24T07:51:43;15.70;94.20
61392;DHT22;47261;52.892;5.738;2022-09-24T07:54:09;15.70;94.10
61392;DHT22;47261;52.892;5.738;2022-09-24T07:56:36;15.80;94.10
61392;DHT22;47261;52.892;5.738;2022-09-24T07:59:02;15.80;94.10
61392;DHT22;47261;52.892;5.738;2022-09-24T08:01:31;15.90;94.10
61392;DHT22;47261;52.892;5.738;2022-09-24T08:03:57;15.90;94.00
61392;DHT22;47261;52.892;5.738;2022-09-24T08:06:23;15.90;94.00
61392;DHT22;47261;52.892;5.738;2022-09-24T08:08:49;16.00;93.90
61392;DHT22;47261;52.892;5.738;2022-09-24T08:11:17;16.10;93.80
61392;DHT22;47261;52.892;5.738;2022-09-24T08:13:43;16.10;93.80
61392;DHT22;47261;52.892;5.738;2022-09-24T08:16:12;16.20;93.70
61392;DHT22;47261;52.892;5.738;2022-09-24T08:18:38;16.20;93.70
61392;DHT22;47261;52.892;5.738;2022-09-24T08:21:06;16.30;93.60
61392;DHT22;47261;52.892;5.738;2022-09-24T08:23:32;16.30;93.50
61392;DHT22;47261;52.892;5.738;2022-09-24T08:25:58;16.30;93.40
61392;DHT22;47261;52.892;5.738;2022-09-24T08:28:25;16.30;93.30
61392;DHT22;47261;52.892;5.738;2022-09-24T08:30:50;16.30;93.30
61392;DHT22;47261;52.892;5.738;2022-09-24T08:33:16;16.40;93.20
61392;DHT22;47261;52.892;5.738;2022-09-24T08:35:42;16.40;93.10
61392;DHT22;47261;52.892;5.738;2022-09-24T08:38:08;16.40;92.90
61392;DHT22;47261;52.892;5.738;2022-09-24T08:46:28;16.40;92.80
61392;DHT22;47261;52.892;5.738;2022-09-24T08:49:18;16.40;92.70
61392;DHT22;47261;52.892;5.738;2022-09-24T08:54:53;16.50;92.70
61392;DHT22;47261;52.892;5.738;2022-09-24T08:57:21;16.50;92.60
61392;DHT22;47261;52.892;5.738;2022-09-24T08:59:51;16.50;92.60
61392;DHT22;47261;52.892;5.738;2022-09-24T09:10:57;16.70;92.10
61392;DHT22;47261;52.892;5.738;2022-09-24T09:13:32;16.70;91.90
61392;DHT22;47261;52.892;5.738;2022-09-24T09:16:06;16.70;91.80
61392;DHT22;47261;52.892;5.738;2022-09-24T09:18:38;16.70;91.80
61392;DHT22;47261;52.892;5.738;2022-09-24T09:21:16;16.80;91.80
61392;DHT22;47261;52.892;5.738;2022-09-24T09:23:47;16.80;91.50
61392;DHT22;47261;52.892;5.738;2022-09-24T09:26:14;16.80;91.10
61392;DHT22;47261;52.892;5.738;2022-09-24T09:28:43;16.90;91.00
61392;DHT22;47261;52.892;5.738;2022-09-24T09:36:36;17.00;90.30
61392;DHT22;47261;52.892;5.738;2022-09-24T09:45:02;17.30;89.80
61392;DHT22;47261;52.892;5.738;2022-09-24T09:47:49;17.40;88.90
61392;DHT22;47261;52.892;5.738;2022-09-24T09:50:22;17.40;87.20
61392;DHT22;47261;52.892;5.738;2022-09-24T09:52:50;17.40;87.40
61392;DHT22;47261;52.892;5.738;2022-09-24T09:55:28;17.50;88.00
61392;DHT22;47261;52.892;5.738;2022-09-24T10:00:35;17.50;87.80
61392;DHT22;47261;52.892;5.738;2022-09-24T10:03:01;17.50;87.80
61392;DHT22;47261;52.892;5.738;2022-09-24T10:05:29;17.50;87.60
61392;DHT22;47261;52.892;5.738;2022-09-24T10:07:55;17.60;87.40
61392;DHT22;47261;52.892;5.738;2022-09-24T10:10:26;17.60;88.00
61392;DHT22;47261;52.892;5.738;2022-09-24T10:13:08;17.70;88.10
61392;DHT22;47261;52.892;5.738;2022-09-24T10:18:34;17.90;85.10
61392;DHT22;47261;52.892;5.738;2022-09-24T10:21:04;17.90;83.20
61392;DHT22;47261;52.892;5.738;2022-09-24T10:24:00;17.90;82.70
61392;DHT22;47261;52.892;5.738;2022-09-24T10:26:37;18.00;83.40
61392;DHT22;47261;52.892;5.738;2022-09-24T10:29:04;18.10;83.80
61392;DHT22;47261;52.892;5.738;2022-09-24T10:31:49;18.30;83.90
61392;DHT22;47261;52.892;5.738;2022-09-24T10:34:21;18.50;84.20
61392;DHT22;47261;52.892;5.738;2022-09-24T10:36:50;18.70;83.60
61392;DHT22;47261;52.892;5.738;2022-09-24T10:39:16;18.90;82.90
61392;DHT22;47261;52.892;5.738;2022-09-24T10:41:50;19.10;82.10
61392;DHT22;47261;52.892;5.738;2022-09-24T10:44:17;19.20;80.20
61392;DHT22;47261;52.892;5.738;2022-09-24T10:46:54;19.20;79.30
61392;DHT22;47261;52.892;5.738;2022-09-24T11:00:22;18.90;78.80
61392;DHT22;47261;52.892;5.738;2022-09-24T11:05:52;18.90;79.00
61392;DHT22;47261;52.892;5.738;2022-09-24T11:08:40;18.90;79.30
61392;DHT22;47261;52.892;5.738;2022-09-24T11:11:09;18.80;79.50
61392;DHT22;47261;52.892;5.738;2022-09-24T11:19:02;18.80;80.20
61392;DHT22;47261;52.892;5.738;2022-09-24T11:29:47;19.20;79.00
61392;DHT22;47261;52.892;5.738;2022-09-24T11:37:59;18.90;77.70
61392;DHT22;47261;52.892;5.738;2022-09-24T11:40:48;18.80;78.20
61392;DHT22;47261;52.892;5.738;2022-09-24T11:56:32;18.60;77.60
61392;DHT22;47261;52.892;5.738;2022-09-24T11:59:28;18.50;77.70
61392;DHT22;47261;52.892;5.738;2022-09-24T12:02:04;18.40;77.90
61392;DHT22;47261;52.892;5.738;2022-09-24T12:04:58;18.30;77.30
61392;DHT22;47261;52.892;5.738;2022-09-24T12:12:44;18.30;77.70
61392;DHT22;47261;52.892;5.738;2022-09-24T12:15:22;18.30;77.40
61392;DHT22;47261;52.892;5.738;2022-09-24T12:17:55;18.30;76.20
61392;DHT22;47261;52.892;5.738;2022-09-24T12:20:30;18.30;76.20
61392;DHT22;47261;52.892;5.738;2022-09-24T12:23:00;18.20;76.00
61392;DHT22;47261;52.892;5.738;2022-09-24T12:25:42;18.20;75.70
61392;DHT22;47261;52.892;5.738;2022-09-24T12:28:19;18.20;74.70
61392;DHT22;47261;52.892;5.738;2022-09-24T12:31:29;18.30;74.40
61392;DHT22;47261;52.892;5.738;2022-09-24T12:34:25;18.40;74.30
61392;DHT22;47261;52.892;5.738;2022-09-24T12:36:58;18.40;74.30
61392;DHT22;47261;52.892;5.738;2022-09-24T12:39:32;18.40;73.70
61392;DHT22;47261;52.892;5.738;2022-09-24T12:42:03;18.50;73.90
61392;DHT22;47261;52.892;5.738;2022-09-24T12:44:48;18.50;73.90
61392;DHT22;47261;52.892;5.738;2022-09-24T12:47:27;18.60;74.20
61392;DHT22;47261;52.892;5.738;2022-09-24T12:49:56;18.90;74.00
61392;DHT22;47261;52.892;5.738;2022-09-24T12:52:23;19.10;73.50
61392;DHT22;47261;52.892;5.738;2022-09-24T12:54:58;19.30;71.00
61392;DHT22;47261;52.892;5.738;2022-09-24T12:57:31;19.40;70.60
61392;DHT22;47261;52.892;5.738;2022-09-24T13:00:00;19.40;71.40
61392;DHT22;47261;52.892;5.738;2022-09-24T13:02:44;19.40;71.50
61392;DHT22;47261;52.892;5.738;2022-09-24T13:10:35;19.30;71.70
61392;DHT22;47261;52.892;5.738;2022-09-24T13:13:02;19.20;71.60
61392;DHT22;47261;52.892;5.738;2022-09-24T13:15:32;19.10;71.90
61392;DHT22;47261;52.892;5.738;2022-09-24T13:20:38;18.90;72.80
61392;DHT22;47261;52.892;5.738;2022-09-24T13:28:27;18.50;72.80
61392;DHT22;47261;52.892;5.738;2022-09-24T13:31:02;18.40;72.70
61392;DHT22;47261;52.892;5.738;2022-09-24T13:33:41;18.20;73.20
61392;DHT22;47261;52.892;5.738;2022-09-24T13:41:41;18.10;73.60
61392;DHT22;47261;52.892;5.738;2022-09-24T13:46:45;17.90;73.80
61392;DHT22;47261;52.892;5.738;2022-09-24T13:49:15;17.80;74.20
61392;DHT22;47261;52.892;5.738;2022-09-24T13:51:46;17.80;74.60
61392;DHT22;47261;52.892;5.738;2022-09-24T13:54:24;17.80;74.30
61392;DHT22;47261;52.892;5.738;2022-09-24T13:57:24;17.80;74.00
61392;DHT22;47261;52.892;5.738;2022-09-24T14:00:03;17.70;73.90
61392;DHT22;47261;52.892;5.738;2022-09-24T14:02:34;17.70;73.90
61392;DHT22;47261;52.892;5.738;2022-09-24T14:05:01;17.60;73.40
61392;DHT22;47261;52.892;5.738;2022-09-24T14:07:27;17.60;73.60
61392;DHT22;47261;52.892;5.738;2022-09-24T14:10:11;17.60;73.10
61392;DHT22;47261;52.892;5.738;2022-09-24T14:12:37;17.60;72.90
61392;DHT22;47261;52.892;5.738;2022-09-24T14:15:12;17.60;72.60
61392;DHT22;47261;52.892;5.738;2022-09-24T14:17:38;17.60;72.80
61392;DHT22;47261;52.892;5.738;2022-09-24T14:20:04;17.50;73.10
61392;DHT22;47261;52.892;5.738;2022-09-24T14:22:36;17.60;73.50
61392;DHT22;47261;52.892;5.738;2022-09-24T14:25:19;17.60;73.50
61392;DHT22;47261;52.892;5.738;2022-09-24T14:27:48;17.60;73.10
61392;DHT22;47261;52.892;5.738;2022-09-24T14:30:26;17.60;72.80
61392;DHT22;47261;52.892;5.738;2022-09-24T14:32:56;17.60;72.60
61392;DHT22;47261;52.892;5.738;2022-09-24T14:38:41;17.70;73.00
61392;DHT22;47261;52.892;5.738;2022-09-24T14:40:53;17.70;72.70
61392;DHT22;47261;52.892;5.738;2022-09-24T14:43:24;17.80;72.90
61392;DHT22;47261;52.892;5.738;2022-09-24T14:46:05;17.80;73.00
61392;DHT22;47261;52.892;5.738;2022-09-24T14:48:34;17.90;72.90
61392;DHT22;47261;52.892;5.738;2022-09-24T14:51:00;17.90;72.90
61392;DHT22;47261;52.892;5.738;2022-09-24T14:53:35;17.90;72.60
61392;DHT22;47261;52.892;5.738;2022-09-24T14:56:29;17.90;72.80
61392;DHT22;47261;52.892;5.738;2022-09-24T14:58:55;17.90;73.10
61392;DHT22;47261;52.892;5.738;2022-09-24T15:01:28;17.90;73.40
61392;DHT22;47261;52.892;5.738;2022-09-24T15:04:06;17.90;73.40
61392;DHT22;47261;52.892;5.738;2022-09-24T15:06:44;17.90;73.50
61392;DHT22;47261;52.892;5.738;2022-09-24T15:09:30;17.80;72.70
61392;DHT22;47261;52.892;5.738;2022-09-24T15:12:12;17.80;72.40
61392;DHT22;47261;52.892;5.738;2022-09-24T15:14:53;17.70;71.90
61392;DHT22;47261;52.892;5.738;2022-09-24T15:17:23;17.70;71.60
61392;DHT22;47261;52.892;5.738;2022-09-24T15:19:53;17.70;71.90
61392;DHT22;47261;52.892;5.738;2022-09-24T15:22:20;17.60;71.80
61392;DHT22;47261;52.892;5.738;2022-09-24T15:24:47;17.60;70.60
61392;DHT22;47261;52.892;5.738;2022-09-24T15:29:39;17.50;71.20
61392;DHT22;47261;52.892;5.738;2022-09-24T15:32:13;17.40;70.70
61392;DHT22;47261;52.892;5.738;2022-09-24T15:34:39;17.40;70.60
61392;DHT22;47261;52.892;5.738;2022-09-24T15:37:10;17.30;70.60
61392;DHT22;47261;52.892;5.738;2022-09-24T15:39:36;17.20;71.30
61392;DHT22;47261;52.892;5.738;2022-09-24T15:42:03;17.20;72.20
61392;DHT22;47261;52.892;5.738;2022-09-24T15:44:28;17.20;72.80
61392;DHT22;47261;52.892;5.738;2022-09-24T15:46:54;17.20;73.60
61392;DHT22;47261;52.892;5.738;2022-09-24T15:49:21;17.20;73.90
61392;DHT22;47261;52.892;5.738;2022-09-24T15:51:53;17.20;73.70
61392;DHT22;47261;52.892;5.738;2022-09-24T15:54:19;17.10;73.80
61392;DHT22;47261;52.892;5.738;2022-09-24T15:56:46;17.10;74.00
61392;DHT22;47261;52.892;5.738;2022-09-24T15:59:20;17.10;73.70
61392;DHT22;47261;52.892;5.738;2022-09-24T16:01:47;17.00;73.80
61392;DHT22;47261;52.892;5.738;2022-09-24T16:04:13;17.00;73.70
61392;DHT22;47261;52.892;5.738;2022-09-24T16:06:39;16.90;74.10
61392;DHT22;47261;52.892;5.738;2022-09-24T16:09:05;16.90;74.40
61392;DHT22;47261;52.892;5.738;2022-09-24T16:11:31;16.80;74.40
61392;DHT22;47261;52.892;5.738;2022-09-24T16:13:57;16.80;74.40
61392;DHT22;47261;52.892;5.738;2022-09-24T16:16:23;16.70;74.40
61392;DHT22;47261;52.892;5.738;2022-09-24T16:18:48;16.70;74.30
61392;DHT22;47261;52.892;5.738;2022-09-24T16:21:14;16.60;74.00
61392;DHT22;47261;52.892;5.738;2022-09-24T16:23:40;16.60;73.80
61392;DHT22;47261;52.892;5.738;2022-09-24T16:26:05;16.60;72.60
61392;DHT22;47261;52.892;5.738;2022-09-24T16:28:31;16.50;72.70
61392;DHT22;47261;52.892;5.738;2022-09-24T16:30:57;16.40;73.40
61392;DHT22;47261;52.892;5.738;2022-09-24T16:33:23;16.40;73.80
61392;DHT22;47261;52.892;5.738;2022-09-24T16:35:49;16.40;74.40
61392;DHT22;47261;52.892;5.738;2022-09-24T16:38:16;16.30;74.90
61392;DHT22;47261;52.892;5.738;2022-09-24T16:40:42;16.30;75.30
61392;DHT22;47261;52.892;5.738;2022-09-24T16:43:08;16.20;75.80
61392;DHT22;47261;52.892;5.738;2022-09-24T16:45:35;16.20;76.20
61392;DHT22;47261;52.892;5.738;2022-09-24T16:48:01;16.10;76.40
61392;DHT22;47261;52.892;5.738;2022-09-24T16:50:27;16.10;76.80
61392;DHT22;47261;52.892;5.738;2022-09-24T16:52:52;16.00;77.30
61392;DHT22;47261;52.892;5.738;2022-09-24T16:55:21;16.00;77.70
61392;DHT22;47261;52.892;5.738;2022-09-24T16:57:52;15.90;78.10
61392;DHT22;47261;52.892;5.738;2022-09-24T17:00:18;15.90;78.70
61392;DHT22;47261;52.892;5.738;2022-09-24T17:02:44;15.80;79.00
61392;DHT22;47261;52.892;5.738;2022-09-24T17:05:10;15.80;79.30
61392;DHT22;47261;52.892;5.738;2022-09-24T17:07:36;15.70;79.50
61392;DHT22;47261;52.892;5.738;2022-09-24T17:10:01;15.70;79.80
61392;DHT22;47261;52.892;5.738;2022-09-24T17:12:41;15.60;80.00
61392;DHT22;47261;52.892;5.738;2022-09-24T17:15:08;15.50;80.20
61392;DHT22;47261;52.892;5.738;2022-09-24T17:17:34;15.50;80.50
61392;DHT22;47261;52.892;5.738;2022-09-24T17:19:59;15.40;80.70
61392;DHT22;47261;52.892;5.738;2022-09-24T17:22:25;15.30;80.80
61392;DHT22;47261;52.892;5.738;2022-09-24T17:24:51;15.20;81.00
61392;DHT22;47261;52.892;5.738;2022-09-24T17:27:17;15.20;81.30
61392;DHT22;47261;52.892;5.738;2022-09-24T17:29:43;15.10;81.40
61392;DHT22;47261;52.892;5.738;2022-09-24T17:32:08;15.10;81.70
61392;DHT22;47261;52.892;5.738;2022-09-24T17:34:34;15.00;81.90
61392;DHT22;47261;52.892;5.738;2022-09-24T17:37:00;14.90;82.10
61392;DHT22;47261;52.892;5.738;2022-09-24T17:39:25;14.80;82.30
61392;DHT22;47261;52.892;5.738;2022-09-24T17:41:52;14.70;82.40
61392;DHT22;47261;52.892;5.738;2022-09-24T17:44:18;14.70;82.60
61392;DHT22;47261;52.892;5.738;2022-09-24T17:46:43;14.60;82.80
61392;DHT22;47261;52.892;5.738;2022-09-24T17:49:09;14.50;83.00
61392;DHT22;47261;52.892;5.738;2022-09-24T17:51:36;14.40;83.30
61392;DHT22;47261;52.892;5.738;2022-09-24T17:54:11;14.30;83.50
61392;DHT22;47261;52.892;5.738;2022-09-24T17:56:37;14.30;83.70
61392;DHT22;47261;52.892;5.738;2022-09-24T17:59:11;14.10;83.50
61392;DHT22;47261;52.892;5.738;2022-09-24T18:01:38;14.00;83.60
61392;DHT22;47261;52.892;5.738;2022-09-24T18:04:06;13.80;83.50